Time;durP1;ratioP1;P1;durP2;ratioP2;P2;SDS_P1;SDS_P2;PMS_P1;PMS_P2;Temp;Humidity;BMP_temperature;BMP_pressure;BME280_temperature;BME280_humidity;BME280_pressure;Samples;Min_cycle;Max_cycle;Signal;HPM_P1;HPM_P2
2023/10/22 00:02:21;;;;;;;;;;;;;;;12.79;100.00;99009.15;131098;1294;22571;-81
2023/10/22 00:05:22;;;;;;;49.60;33.10;;;;;;;12.79;100.00;99003.45;131095;1301;22620;-80
2023/10/22 00:08:22;;;;;;;49.00;33.90;;;;;;;12.79;100.00;99002.14;131056;1301;22550;-81
2023/10/22 00:11:26;;;;;;;43.50;30.60;;;;;;;12.80;100.00;98997.15;131093;1301;24229;-81
2023/10/22 00:14:26;;;;;;;46.80;30.90;;;;;;;12.79;100.00;98991.21;131028;1294;22572;-80
2023/10/22 00:17:30;;;;;;;42.50;29.70;;;;;;;12.76;100.00;98997.44;131065;1294;23012;-81
2023/10/22 00:20:31;;;;;;;49.70;31.60;;;;;;;12.75;100.00;98997.03;131073;1301;25515;-80
2023/10/22 00:23:31;;;;;;;46.10;30.40;;;;;;;12.75;100.00;98992.32;130987;1301;22642;-81
2023/10/22 00:26:35;;;;;;;48.20;33.10;;;;;;;12.74;100.00;98993.14;131032;1294;23429;-81
2023/10/22 00:29:35;;;;;;;47.70;32.00;;;;;;;12.71;100.00;98995.58;130969;1295;25339;-79
2023/10/22 00:32:36;;;;;;;45.40;30.00;;;;;;;12.70;100.00;98991.40;130869;1301;26354;-80
2023/10/22 00:35:37;;;;;;;44.10;31.10;;;;;;;12.70;100.00;98986.77;130835;1292;25376;-80
2023/10/22 00:38:37;;;;;;;44.70;31.30;;;;;;;12.70;100.00;98984.31;130878;1301;22679;-80
2023/10/22 00:41:38;;;;;;;51.20;33.10;;;;;;;12.68;100.00;98989.96;131266;1301;22569;-81
2023/10/22 00:44:39;;;;;;;50.70;31.50;;;;;;;12.65;100.00;98989.31;130907;1301;22793;-81
2023/10/22 00:47:39;;;;;;;42.70;29.70;;;;;;;12.62;100.00;98989.70;130785;1301;22569;-80
2023/10/22 00:50:40;;;;;;;45.70;32.60;;;;;;;12.60;100.00;98991.38;130779;1301;24241;-79
2023/10/22 00:53:47;;;;;;;48.30;33.30;;;;;;;12.59;100.00;99003.88;130726;1301;22566;-79
2023/10/22 00:56:50;;;;;;;52.00;34.60;;;;;;;12.58;100.00;99019.83;130929;1301;23394;-81
2023/10/22 00:59:52;;;;;;;56.50;37.00;;;;;;;12.52;100.00;99025.88;130789;1301;22571;-79
2023/10/22 01:02:53;;;;;;;56.40;36.00;;;;;;;12.49;100.00;99024.66;130943;1301;22626;-80
2023/10/22 01:05:53;;;;;;;52.00;34.20;;;;;;;12.47;100.00;99029.61;130967;1301;25415;-80
2023/10/22 01:08:55;;;;;;;;;;;;;;;12.45;100.00;99031.30;131033;1301;24272;-80
2023/10/22 01:12:04;;;;;;;47.30;31.90;;;;;;;12.43;100.00;99029.45;130954;1301;25434;-80
2023/10/22 01:15:08;;;;;;;49.20;33.10;;;;;;;12.39;100.00;99018.08;130772;1301;23890;-80
2023/10/22 01:18:09;;;;;;;49.30;32.90;;;;;;;12.36;100.00;99012.69;131381;1297;22983;-79
2023/10/22 01:21:10;;;;;;;46.80;30.60;;;;;;;12.37;100.00;99004.79;130990;1301;24250;-81
2023/10/22 01:24:11;;;;;;;45.80;32.20;;;;;;;12.35;100.00;99012.63;130716;1302;22559;-80
2023/10/22 01:27:12;;;;;;;49.90;33.20;;;;;;;12.34;100.00;99012.72;131091;1294;22572;-81
2023/10/22 01:30:12;;;;;;;;;;;;;;;12.33;100.00;99011.65;131092;1301;22543;-80
2023/10/22 01:33:13;;;;;;;50.50;33.50;;;;;;;12.30;100.00;99008.10;131039;1301;22599;-81
2023/10/22 01:36:14;;;;;;;56.90;36.90;;;;;;;12.31;100.00;99002.56;131066;1301;22621;-80
2023/10/22 01:39:14;;;;;;;57.40;38.50;;;;;;;12.35;100.00;98998.55;131054;1301;25333;-81
2023/10/22 01:42:16;;;;;;;58.00;35.90;;;;;;;12.41;100.00;98994.21;131045;1301;22600;-79
2023/10/22 01:45:16;;;;;;;59.10;37.30;;;;;;;12.47;100.00;98994.09;131004;1301;25458;-80
2023/10/22 01:48:17;;;;;;;50.30;34.50;;;;;;;12.52;100.00;98996.09;130965;1301;22712;-79
2023/10/22 01:51:18;;;;;;;53.90;33.90;;;;;;;12.57;100.00;98989.49;131091;1301;23943;-80
2023/10/22 01:54:18;;;;;;;55.60;36.70;;;;;;;12.60;100.00;98987.93;130961;1293;22597;-80
2023/10/22 01:57:19;;;;;;;57.70;36.30;;;;;;;12.63;100.00;98984.94;131044;1301;23385;-80
2023/10/22 02:00:20;;;;;;;54.50;36.40;;;;;;;12.65;100.00;98982.98;130947;1295;22612;-81
2023/10/22 02:03:21;;;;;;;45.30;28.30;;;;;;;12.68;100.00;98987.54;131017;1301;23020;-80
2023/10/22 02:06:24;;;;;;;49.40;33.40;;;;;;;12.72;100.00;98980.67;131179;1297;22603;-79
2023/10/22 02:09:25;;;;;;;47.60;32.40;;;;;;;12.73;100.00;98973.04;130953;1301;22606;-80
2023/10/22 02:12:28;;;;;;;52.10;32.20;;;;;;;12.72;100.00;98968.87;130876;1294;22716;-80
2023/10/22 02:15:28;;;;;;;52.90;33.30;;;;;;;12.73;100.00;98967.96;131004;1301;23481;-79
2023/10/22 02:18:29;;;;;;;47.40;33.20;;;;;;;12.73;100.00;98963.27;131053;1301;22651;-79
2023/10/22 02:21:30;;;;;;;49.30;33.20;;;;;;;12.75;100.00;98963.22;130840;1300;23225;-79
2023/10/22 02:24:31;;;;;;;49.30;33.10;;;;;;;12.76;100.00;98963.77;131069;1297;23605;-80
2023/10/22 02:27:32;;;;;;;51.10;32.90;;;;;;;12.75;100.00;98962.71;130969;1301;22553;-81
2023/10/22 02:30:32;;;;;;;48.50;31.60;;;;;;;12.71;100.00;98962.44;130888;1295;22559;-80
2023/10/22 02:33:33;;;;;;;48.40;31.70;;;;;;;12.71;100.00;98957.21;130938;1301;22597;-79
2023/10/22 02:36:34;;;;;;;47.10;31.90;;;;;;;12.68;100.00;98954.17;130968;1301;24426;-80
2023/10/22 02:39:34;;;;;;;49.50;31.50;;;;;;;12.65;100.00;98950.63;130975;1301;22559;-81
2023/10/22 02:42:35;;;;;;;49.10;31.20;;;;;;;12.65;100.00;98957.21;130991;1301;23270;-79
2023/10/22 02:45:35;;;;;;;44.00;30.60;;;;;;;12.65;100.00;98959.47;130853;1301;26571;-80
2023/10/22 02:48:36;;;;;;;41.10;29.00;;;;;;;12.67;100.00;98953.85;131006;1296;25372;-81
2023/10/22 02:51:36;;;;;;;47.10;31.60;;;;;;;12.70;100.00;98954.39;130969;1301;22611;-81
2023/10/22 02:54:37;;;;;;;51.80;32.30;;;;;;;12.70;100.00;98953.60;130902;1301;22558;-81
2023/10/22 02:57:38;;;;;;;48.00;29.50;;;;;;;12.69;100.00;98951.63;130877;1301;22655;-81
2023/10/22 03:00:39;;;;;;;40.10;30.00;;;;;;;12.64;100.00;98948.70;130864;1301;24324;-79
2023/10/22 03:03:40;;;;;;;43.40;29.60;;;;;;;12.60;100.00;98949.83;130797;1301;24318;-80
2023/10/22 03:06:40;;;;;;;;;;;;;;;12.56;100.00;98953.30;130955;1301;22596;-79
2023/10/22 03:09:41;;;;;;;41.50;28.50;;;;;;;12.54;100.00;98949.70;131003;1297;25537;-80
2023/10/22 03:12:44;;;;;;;46.50;29.00;;;;;;;12.53;100.00;98953.23;130838;1301;22611;-80
2023/10/22 03:15:45;;;;;;;45.30;30.60;;;;;;;12.52;100.00;98955.80;130895;1298;24385;-79
2023/10/22 03:18:46;;;;;;;43.90;30.20;;;;;;;12.53;100.00;98966.83;130922;1294;23573;-79
2023/10/22 03:21:47;;;;;;;44.10;30.60;;;;;;;12.56;100.00;98974.84;130842;1301;23343;-80
2023/10/22 03:24:49;;;;;;;47.00;29.90;;;;;;;12.58;100.00;98974.10;130902;1301;25407;-80
2023/10/22 03:27:49;;;;;;;44.50;30.00;;;;;;;12.58;100.00;98974.83;131032;1286;22600;-80
2023/10/22 03:30:50;;;;;;;;;;;;;;;12.57;100.00;98976.15;131041;1295;22587;-80
2023/10/22 03:33:50;;;;;;;49.00;29.00;;;;;;;12.58;100.00;98978.19;130913;1301;23397;-79
2023/10/22 03:36:51;;;;;;;45.30;29.10;;;;;;;12.57;100.00;98975.05;130873;1301;22810;-80
2023/10/22 03:39:51;;;;;;;52.60;32.30;;;;;;;12.58;100.00;98971.72;130910;1301;23427;-79
2023/10/22 03:42:52;;;;;;;44.80;31.50;;;;;;;12.58;100.00;98971.00;131074;1300;23317;-80
2023/10/22 03:45:52;;;;;;;44.90;31.10;;;;;;;12.60;100.00;98969.23;131042;1301;22618;-80
2023/10/22 03:48:56;;;;;;;49.20;30.90;;;;;;;12.62;100.00;98969.11;130959;1301;25453;-80
2023/10/22 03:51:57;;;;;;;48.50;31.20;;;;;;;12.64;100.00;98966.34;130957;1301;22568;-79
2023/10/22 03:54:58;;;;;;;53.40;32.30;;;;;;;12.66;100.00;98964.91;130965;1301;25427;-80
2023/10/22 03:57:58;;;;;;;;;;;;;;;12.68;100.00;98965.98;131045;1294;25347;-80
2023/10/22 04:00:59;;;;;;;45.90;30.40;;;;;;;12.67;100.00;98972.94;131031;1301;25423;-79
2023/10/22 04:03:59;;;;;;;46.10;31.40;;;;;;;12.68;100.00;98967.61;131046;1301;23568;-80
2023/10/22 04:07:02;;;;;;;48.80;31.10;;;;;;;12.69;100.00;98963.72;130997;1301;22574;-79
2023/10/22 04:10:09;;;;;;;46.60;30.70;;;;;;;12.70;100.00;98964.05;130900;1301;22747;-80
2023/10/22 04:13:10;;;;;;;49.60;30.20;;;;;;;12.71;100.00;98959.90;131006;1301;22608;-80
2023/10/22 04:16:17;;;;;;;46.30;29.50;;;;;;;12.72;100.00;98965.96;131027;1301;22618;-80
2023/10/22 04:19:17;;;;;;;44.20;28.00;;;;;;;12.75;100.00;98966.45;131328;1301;22556;-80
2023/10/22 04:22:18;;;;;;;46.40;30.90;;;;;;;12.79;100.00;98964.96;130995;1295;22613;-80
2023/10/22 04:25:18;;;;;;;39.50;29.10;;;;;;;12.81;100.00;98956.89;131060;1295;22671;-80
2023/10/22 04:28:19;;;;;;;50.70;29.00;;;;;;;12.83;100.00;98959.83;130999;1301;23340;-79
2023/10/22 04:31:20;;;;;;;49.60;30.80;;;;;;;12.86;100.00;98962.69;131065;1298;22678;-80
2023/10/22 04:34:21;;;;;;;49.40;31.90;;;;;;;12.89;100.00;98964.55;131022;1301;26137;-80
2023/10/22 04:37:23;;;;;;;50.90;31.80;;;;;;;12.91;100.00;98963.75;131053;1298;22675;-79
2023/10/22 04:40:26;;;;;;;50.40;30.30;;;;;;;12.93;100.00;98961.64;131015;1301;23173;-80
2023/10/22 04:43:30;;;;;;;52.00;31.30;;;;;;;12.95;100.00;98965.29;131079;1296;25326;-79
2023/10/22 04:46:30;;;;;;;52.50;32.60;;;;;;;12.97;100.00;98968.23;131118;1295;22584;-79
2023/10/22 04:49:31;;;;;;;47.50;29.50;;;;;;;12.99;100.00;98972.03;131159;1293;22576;-80
2023/10/22 04:52:33;;;;;;;52.20;33.60;;;;;;;13.01;100.00;98974.56;131220;1296;22639;-79
2023/10/22 04:55:34;;;;;;;44.90;30.70;;;;;;;13.03;100.00;98974.67;131201;1293;22594;-80
2023/10/22 04:58:35;;;;;;;;;;;;;;;13.04;100.00;98970.70;131108;1297;22683;-80
2023/10/22 05:01:35;;;;;;;46.60;31.00;;;;;;;13.05;100.00;98969.89;131045;1298;22560;-80
2023/10/22 05:04:36;;;;;;;47.80;31.90;;;;;;;13.05;100.00;98973.89;130894;1295;22583;-79
2023/10/22 05:07:37;;;;;;;51.20;32.30;;;;;;;13.06;100.00;98976.42;131028;1296;22579;-80
2023/10/22 05:10:41;;;;;;;50.50;31.90;;;;;;;13.06;100.00;98977.77;130927;1295;22572;-80
2023/10/22 05:13:48;;;;;;;43.30;28.30;;;;;;;13.08;100.00;98975.27;130876;1295;22598;-79
2023/10/22 05:16:52;;;;;;;45.80;30.10;;;;;;;13.09;100.00;98977.27;130872;1295;23886;-79
2023/10/22 05:19:52;;;;;;;51.10;30.60;;;;;;;13.11;100.00;98979.28;130913;1297;22555;-81
2023/10/22 05:22:53;;;;;;;43.20;29.90;;;;;;;13.11;100.00;98978.90;130734;1294;24077;-80
2023/10/22 05:26:15;;;;;;;45.80;28.30;;;;;;;13.14;100.00;98976.93;130886;1288;24241;-82
2023/10/22 05:29:15;;;;;;;44.60;31.10;;;;;;;13.14;100.00;98981.30;131369;1295;22571;-81
2023/10/22 05:32:16;;;;;;;46.30;31.90;;;;;;;13.14;100.00;98977.86;130907;1298;25558;-80
2023/10/22 05:35:16;;;;;;;48.70;31.80;;;;;;;13.15;100.00;98979.75;131196;1297;22575;-79
2023/10/22 05:38:17;;;;;;;45.60;31.00;;;;;;;13.16;100.00;98979.21;130986;1301;22740;-80
2023/10/22 05:41:23;;;;;;;47.30;30.20;;;;;;;13.16;100.00;98980.04;131102;1298;23708;-81
2023/10/22 05:44:27;;;;;;;43.10;29.80;;;;;;;13.15;100.00;98981.85;130991;1297;187406;-80
2023/10/22 05:47:31;;;;;;;47.40;29.90;;;;;;;13.15;100.00;98985.08;131198;1285;22610;-79
2023/10/22 05:50:36;;;;;;;45.30;30.70;;;;;;;13.16;100.00;98979.26;131178;1293;22589;-80
2023/10/22 05:53:37;;;;;;;40.90;28.90;;;;;;;13.16;100.00;98977.09;131140;1296;23003;-79
2023/10/22 05:56:38;;;;;;;45.20;30.10;;;;;;;13.17;100.00;98978.75;131158;1297;22671;-80
2023/10/22 05:59:38;;;;;;;47.50;30.80;;;;;;;13.18;100.00;98984.27;131127;1297;22651;-79
2023/10/22 06:02:40;;;;;;;46.80;29.90;;;;;;;13.20;100.00;98984.85;131048;1297;22608;-80
2023/10/22 06:05:40;;;;;;;45.10;29.90;;;;;;;13.21;100.00;98983.66;131145;1294;22583;-82
2023/10/22 06:08:42;;;;;;;47.10;30.70;;;;;;;13.20;100.00;98987.84;131451;1298;24422;-81
2023/10/22 06:11:42;;;;;;;46.40;30.70;;;;;;;13.21;100.00;98993.16;131285;1298;22591;-81
2023/10/22 06:14:44;;;;;;;45.80;29.70;;;;;;;13.21;100.00;98998.45;130940;1295;22693;-80
2023/10/22 06:17:44;;;;;;;47.80;29.90;;;;;;;13.21;100.00;98999.69;131253;1295;23346;-79
2023/10/22 06:20:45;;;;;;;40.40;30.40;;;;;;;13.21;100.00;99005.55;131255;1294;22863;-80
2023/10/22 06:23:45;;;;;;;;;;;;;;;13.22;100.00;99007.50;131163;1298;24395;-79
2023/10/22 06:26:49;;;;;;;42.70;27.70;;;;;;;13.23;100.00;99011.64;131267;1293;22583;-81
2023/10/22 06:29:50;;;;;;;46.90;30.10;;;;;;;13.26;100.00;99018.25;131263;1294;24419;-83
2023/10/22 06:32:55;;;;;;;44.30;29.70;;;;;;;13.28;100.00;99019.08;131157;1286;23646;-80
2023/10/22 06:35:55;;;;;;;44.60;29.00;;;;;;;13.31;100.00;99019.40;131049;1295;25374;-81
2023/10/22 06:38:56;;;;;;;46.10;29.70;;;;;;;13.33;100.00;99019.47;131147;1295;24362;-80
2023/10/22 06:41:57;;;;;;;45.00;28.90;;;;;;;13.34;100.00;99017.65;131257;1301;25384;-83
2023/10/22 06:44:58;;;;;;;43.30;28.30;;;;;;;13.35;100.00;99018.60;131165;1295;22657;-80
2023/10/22 06:47:58;;;;;;;;;;;;;;;13.35;100.00;99009.54;131314;1295;25344;-80
2023/10/22 06:50:59;;;;;;;39.60;27.50;;;;;;;13.36;100.00;99009.94;131165;1293;22684;-80
2023/10/22 06:53:59;;;;;;;;;;;;;;;13.37;100.00;99005.09;131056;1297;22783;-80
2023/10/22 06:57:00;;;;;;;34.20;24.50;;;;;;;13.38;100.00;99004.69;130969;1301;24311;-81
2023/10/22 07:00:01;;;;;;;41.40;26.70;;;;;;;13.38;100.00;98999.20;131143;1301;22651;-81
2023/10/22 07:03:01;;;;;;;39.30;27.10;;;;;;;13.38;100.00;99003.91;131169;1295;22604;-80
2023/10/22 07:06:02;;;;;;;42.70;28.10;;;;;;;13.40;100.00;99001.89;130857;1297;24231;-83
2023/10/22 07:09:03;;;;;;;41.70;27.00;;;;;;;13.42;100.00;99006.09;130851;1301;22625;-82
2023/10/22 07:12:06;;;;;;;43.70;28.40;;;;;;;13.43;100.00;99004.78;130827;1295;22588;-81
2023/10/22 07:15:09;;;;;;;43.40;29.20;;;;;;;13.45;100.00;99009.54;130943;1298;25388;-78
2023/10/22 07:18:09;;;;;;;35.80;28.10;;;;;;;13.47;100.00;99008.95;131172;1297;22737;-79
2023/10/22 07:21:10;;;;;;;44.90;31.90;;;;;;;13.50;100.00;99011.44;131173;1295;25466;-80
2023/10/22 07:24:10;;;;;;;;;;;;;;;13.51;100.00;99009.58;131197;1294;22498;-79
2023/10/22 07:27:12;;;;;;;40.60;30.30;;;;;;;13.53;100.00;99010.23;131192;1295;25316;-79
2023/10/22 07:30:15;;;;;;;43.40;30.20;;;;;;;13.56;100.00;99008.37;131244;1298;22634;-79
2023/10/22 07:33:17;;;;;;;41.60;28.60;;;;;;;13.58;100.00;99010.73;131002;1291;24357;-79
2023/10/22 07:36:20;;;;;;;39.20;27.30;;;;;;;13.60;100.00;99012.69;131127;1298;22669;-81
2023/10/22 07:39:25;;;;;;;39.70;27.00;;;;;;;13.60;100.00;99014.88;131180;1297;22592;-78
2023/10/22 07:42:26;;;;;;;39.50;28.40;;;;;;;13.62;100.00;99012.04;131090;1298;22814;-82
2023/10/22 07:45:27;;;;;;;36.20;27.70;;;;;;;13.63;100.00;99013.09;131073;1297;22581;-79
2023/10/22 07:48:32;;;;;;;44.60;29.60;;;;;;;13.65;100.00;99022.67;130105;1295;25342;-78
2023/10/22 07:51:33;;;;;;;39.70;31.10;;;;;;;13.66;100.00;99023.21;130549;1295;22600;-78
2023/10/22 07:54:38;;;;;;;47.40;33.10;;;;;;;13.67;100.00;99028.20;130293;1294;23155;-80
2023/10/22 07:57:39;;;;;;;46.90;31.50;;;;;;;13.66;100.00;99029.88;131005;1298;23404;-80
2023/10/22 08:00:40;;;;;;;44.00;32.00;;;;;;;13.68;100.00;99035.33;131164;1295;22629;-82
2023/10/22 08:03:41;;;;;;;39.30;29.90;;;;;;;13.68;100.00;99038.32;130619;1293;22683;-80
2023/10/22 08:06:47;;;;;;;38.00;26.60;;;;;;;13.69;100.00;99045.38;130951;1304;22671;-80
2023/10/22 08:09:59;;;;;;;32.00;22.80;;;;;;;13.67;100.00;99049.68;130816;1298;24243;-81
2023/10/22 08:13:06;;;;;;;25.50;19.70;;;;;;;13.62;100.00;99054.05;130967;1301;23907;-82
2023/10/22 08:16:07;;;;;;;23.50;17.70;;;;;;;13.57;100.00;99051.34;130847;1304;22639;-81
2023/10/22 08:19:10;;;;;;;21.50;16.90;;;;;;;13.52;100.00;99056.60;130886;1298;23281;-82
2023/10/22 08:22:18;;;;;;;23.00;16.80;;;;;;;13.46;100.00;99059.91;130762;1301;22599;-80
2023/10/22 08:25:19;;;;;;;22.60;16.30;;;;;;;13.40;100.00;99065.30;130862;1304;23305;-82
2023/10/22 08:28:24;;;;;;;19.40;16.10;;;;;;;13.37;100.00;99068.21;130890;1300;22577;-82
2023/10/22 08:31:33;;;;;;;26.10;16.50;;;;;;;13.34;100.00;99068.15;130754;1298;22586;-82
2023/10/22 08:34:36;;;;;;;19.50;16.50;;;;;;;13.32;100.00;99070.29;130627;1300;22559;-82
2023/10/22 08:37:38;;;;;;;22.80;16.60;;;;;;;13.32;100.00;99075.13;130662;1304;22557;-82
2023/10/22 08:40:53;;;;;;;19.40;15.90;;;;;;;13.28;100.00;99063.94;130655;1300;22529;-83
2023/10/22 09:02:15;;;;;;;20.50;15.90;;;;;;;13.29;100.00;99091.16;129543;1306;22706;-82
2023/10/22 09:44:33;;;;;;;29.40;21.60;;;;;;;12.78;100.00;99129.59;128200;1324;23508;-81
2023/10/22 09:52:42;;;;;;;;;;;;;;;;;;;;;
2023/10/22 10:55:39;;;;;;;;;;;;;;;;;;;;;
2023/10/22 10:59:11;;;;;;;4.90;2.90;;;;;;;12.08;100.00;99162.38;130543;1307;24317;-82
2023/10/22 11:02:22;;;;;;;4.20;3.30;;;;;;;12.04;100.00;99164.81;130430;1310;22810;-82
2023/10/22 11:05:32;;;;;;;;;;;;;;;12.00;100.00;99168.08;130495;1300;24505;-80
2023/10/22 11:08:45;;;;;;;5.00;2.40;;;;;;;11.94;100.00;99171.17;130558;1300;23821;-81
2023/10/22 11:12:05;;;;;;;4.60;2.50;;;;;;;11.88;100.00;99176.01;131263;1302;22620;-82
2023/10/22 11:15:09;;;;;;;1.70;1.60;;;;;;;11.84;100.00;99177.89;131024;1297;25390;-81
2023/10/22 11:18:13;;;;;;;1.50;1.30;;;;;;;11.78;100.00;99183.25;131190;1298;25392;-82
2023/10/22 11:21:14;;;;;;;1.70;1.50;;;;;;;11.74;100.00;99183.60;131035;1295;25661;-81
2023/10/22 11:24:15;;;;;;;4.10;1.60;;;;;;;11.72;100.00;99185.31;131204;1293;22573;-81
2023/10/22 11:27:19;;;;;;;1.70;1.30;;;;;;;11.69;100.00;99191.70;131008;1298;25476;-81
2023/10/22 11:30:39;;;;;;;1.40;1.30;;;;;;;11.65;100.00;99189.48;131323;1301;22780;-81
2023/10/22 11:33:42;;;;;;;2.10;1.50;;;;;;;11.62;100.00;99193.42;130962;1297;22642;-82
2023/10/22 11:36:44;;;;;;;2.90;1.70;;;;;;;11.58;100.00;99189.07;130805;1294;22569;-82
2023/10/22 11:39:46;;;;;;;2.20;1.50;;;;;;;11.62;100.00;99195.04;130823;1295;24301;-80
2023/10/22 11:42:47;;;;;;;1.40;1.30;;;;;;;11.61;100.00;99200.33;131172;1295;24493;-80
2023/10/22 11:45:51;;;;;;;;;;;;;;;11.60;100.00;99203.11;131201;1298;22563;-80
2023/10/22 11:48:52;;;;;;;2.80;1.50;;;;;;;11.58;100.00;99210.05;131081;1298;22653;-80
2023/10/22 11:51:53;;;;;;;;;;;;;;;11.58;100.00;99210.83;131238;1297;25418;-83
2023/10/22 11:54:55;;;;;;;1.80;1.50;;;;;;;11.57;100.00;99212.73;131001;1297;23922;-82
2023/10/22 11:57:56;;;;;;;2.60;1.80;;;;;;;11.57;100.00;99218.79;130834;1299;22583;-81
2023/10/22 12:00:57;;;;;;;1.70;1.40;;;;;;;11.57;100.00;99223.73;131172;1301;22738;-81
2023/10/22 12:03:59;;;;;;;3.40;1.80;;;;;;;11.55;100.00;99227.67;130963;1301;26136;-82
2023/10/22 12:07:00;;;;;;;4.80;2.90;;;;;;;11.54;100.00;99233.10;131014;1290;22584;-81
2023/10/22 12:10:01;;;;;;;4.30;2.70;;;;;;;11.54;100.00;99236.98;130974;1285;23026;-81
2023/10/22 12:13:05;;;;;;;2.80;1.70;;;;;;;11.55;100.00;99241.83;130909;1301;22606;-80
2023/10/22 12:16:06;;;;;;;3.60;1.80;;;;;;;11.57;100.00;99239.95;131393;1297;23319;-80
2023/10/22 12:19:07;;;;;;;;;;;;;;;11.59;100.00;99248.96;131267;1292;23816;-81
2023/10/22 12:22:07;;;;;;;1.50;1.30;;;;;;;11.59;100.00;99251.17;131288;1293;22735;-80
2023/10/22 12:25:10;;;;;;;;;;;;;;;11.60;100.00;99255.69;131322;1301;24318;-80
2023/10/22 12:28:11;;;;;;;3.40;1.60;;;;;;;11.61;100.00;99255.60;131296;1296;22605;-80
2023/10/22 12:31:11;;;;;;;;;;;;;;;11.61;100.00;99265.45;131245;1298;22562;-80
2023/10/22 12:34:12;;;;;;;4.30;2.70;;;;;;;11.62;100.00;99270.85;131346;1302;22706;-80
2023/10/22 12:37:13;;;;;;;6.30;3.30;;;;;;;11.60;100.00;99273.94;131519;1301;22581;-80
2023/10/22 12:40:14;;;;;;;4.90;2.60;;;;;;;11.64;100.00;99276.83;131558;1291;22546;-79
2023/10/22 12:43:15;;;;;;;3.20;2.40;;;;;;;11.65;100.00;99284.97;131400;1295;23987;-81
2023/10/22 12:46:16;;;;;;;2.90;2.10;;;;;;;11.66;100.00;99286.42;131091;1301;22667;-81
2023/10/22 12:49:17;;;;;;;3.50;1.70;;;;;;;11.67;100.00;99293.61;131390;1295;25545;-80
2023/10/22 12:52:17;;;;;;;5.30;3.70;;;;;;;11.69;100.00;99298.05;131700;1293;22586;-80
2023/10/22 12:55:18;;;;;;;3.60;2.70;;;;;;;11.71;100.00;99304.55;131330;1293;22572;-80
2023/10/22 12:58:19;;;;;;;;;;;;;;;11.70;100.00;99306.96;131302;1297;22544;-80
2023/10/22 13:01:19;;;;;;;3.50;2.50;;;;;;;11.69;100.00;99313.79;131345;1293;22484;-80
2023/10/22 13:04:20;;;;;;;3.80;2.00;;;;;;;11.69;100.00;99317.88;131249;1293;22588;-80
2023/10/22 13:07:24;;;;;;;;;;;;;;;11.68;100.00;99328.63;131277;1294;22591;-81
2023/10/22 13:10:24;;;;;;;2.90;1.80;;;;;;;11.67;100.00;99332.73;131118;1295;22573;-80
2023/10/22 13:13:26;;;;;;;3.00;2.20;;;;;;;11.67;100.00;99341.57;130954;1294;23051;-81
2023/10/22 13:16:27;;;;;;;7.50;4.30;;;;;;;11.67;100.00;99349.66;130799;1291;24243;-82
2023/10/22 13:19:29;;;;;;;5.90;2.80;;;;;;;11.65;100.00;99360.77;130834;1302;24295;-82
2023/10/22 13:22:30;;;;;;;4.10;3.10;;;;;;;11.64;100.00;99362.35;130637;1288;23924;-82
2023/10/22 13:25:34;;;;;;;;;;;;;;;11.64;100.00;99367.66;130572;1295;24354;-82
2023/10/22 13:28:40;;;;;;;5.70;4.10;;;;;;;11.63;100.00;99375.77;130583;1302;22620;-83
2023/10/22 13:31:48;;;;;;;2.90;2.50;;;;;;;11.63;100.00;99378.61;130491;1301;22605;-80
2023/10/22 13:34:49;;;;;;;6.10;2.70;;;;;;;11.63;100.00;99381.65;130929;1295;25465;-84
2023/10/22 13:37:53;;;;;;;2.70;2.40;;;;;;;11.63;100.00;99386.75;130929;1299;22550;-82
2023/10/22 13:40:53;;;;;;;2.70;2.20;;;;;;;11.60;100.00;99391.19;131257;1293;22651;-82
2023/10/22 13:43:54;;;;;;;3.30;2.30;;;;;;;11.63;100.00;99398.61;131067;1298;22725;-82
2023/10/22 13:46:56;;;;;;;;;;;;;;;11.63;100.00;99403.02;131156;1292;25330;-82
2023/10/22 13:49:56;;;;;;;5.30;3.10;;;;;;;11.62;100.00;99410.29;131037;1292;22585;-82
2023/10/22 13:52:58;;;;;;;4.90;2.70;;;;;;;11.62;100.00;99410.08;131161;1294;23927;-82
2023/10/22 13:55:59;;;;;;;4.60;3.00;;;;;;;11.62;100.00;99415.75;131501;1301;22637;-83
2023/10/22 13:59:00;;;;;;;4.00;3.00;;;;;;;11.62;100.00;99422.54;131110;1294;23365;-82
2023/10/22 14:02:03;;;;;;;3.70;2.50;;;;;;;11.61;100.00;99428.27;130828;1301;22523;-81
2023/10/22 14:05:11;;;;;;;4.50;3.20;;;;;;;11.62;100.00;99434.70;131172;1294;24401;-82
2023/10/22 14:08:12;;;;;;;4.90;3.00;;;;;;;11.62;100.00;99438.91;131049;1300;22631;-82
2023/10/22 14:11:14;;;;;;;5.30;3.70;;;;;;;11.63;100.00;99446.15;131148;1298;22574;-82
2023/10/22 14:14:15;;;;;;;4.30;2.70;;;;;;;11.63;100.00;99451.46;130989;1295;22601;-83
2023/10/22 14:17:19;;;;;;;5.30;4.00;;;;;;;11.63;100.00;99455.02;130923;1293;22557;-82
2023/10/22 14:20:20;;;;;;;7.30;4.70;;;;;;;11.63;100.00;99462.79;130820;1297;22559;-82
2023/10/22 14:23:20;;;;;;;4.40;3.70;;;;;;;11.64;100.00;99467.83;131177;1301;25472;-82
2023/10/22 14:26:21;;;;;;;4.90;3.90;;;;;;;11.63;100.00;99471.10;130887;1295;22607;-82
2023/10/22 14:29:22;;;;;;;8.90;5.50;;;;;;;11.62;100.00;99474.64;130829;1295;24107;-84
2023/10/22 14:32:33;;;;;;;;;;;;;;;11.60;100.00;99478.38;130896;1302;22546;-84
2023/10/22 14:35:34;;;;;;;10.40;6.80;;;;;;;11.61;100.00;99484.23;131207;1301;22663;-83
2023/10/22 14:38:35;;;;;;;;;;;;;;;11.62;100.00;99491.64;130840;1304;24314;-84
2023/10/22 14:41:35;;;;;;;9.80;6.30;;;;;;;11.61;100.00;99496.61;130688;1301;22885;-83
2023/10/22 14:44:36;;;;;;;;;;;;;;;11.61;100.00;99498.75;131036;1304;23023;-82
2023/10/22 14:47:40;;;;;;;5.40;4.20;;;;;;;11.62;100.00;99503.45;130647;1302;22593;-83
2023/10/22 14:50:40;;;;;;;5.80;4.10;;;;;;;11.64;100.00;99513.00;130697;1301;24279;-84
2023/10/22 14:53:41;;;;;;;;;;;;;;;11.64;100.00;99518.19;130615;1297;23891;-85
2023/10/22 14:56:42;;;;;;;2.60;2.40;;;;;;;11.65;100.00;99525.05;130640;1301;22616;-85
2023/10/22 14:59:43;;;;;;;3.90;2.70;;;;;;;11.67;100.00;99525.70;130736;1301;22617;-85
2023/10/22 15:02:47;;;;;;;;;;;;;;;11.68;100.00;99528.82;130614;1307;24249;-83
2023/10/22 15:05:49;;;;;;;3.30;2.60;;;;;;;11.68;100.00;99530.37;130477;1307;23526;-83
2023/10/22 15:08:50;;;;;;;2.90;2.40;;;;;;;11.71;100.00;99540.42;130500;1301;23250;-84
2023/10/22 15:11:51;;;;;;;6.70;2.80;;;;;;;11.72;100.00;99541.83;130577;1301;22626;-84
2023/10/22 15:14:55;;;;;;;4.40;2.90;;;;;;;11.75;100.00;99543.49;130646;1304;25278;-85
2023/10/22 15:17:55;;;;;;;5.10;2.90;;;;;;;11.79;100.00;99542.48;130362;1306;22661;-84
2023/10/22 15:20:56;;;;;;;;;;;;;;;11.82;100.00;99548.64;130578;1309;22574;-84
2023/10/22 15:24:00;;;;;;;4.00;2.80;;;;;;;11.84;100.00;99555.70;130683;1307;22562;-84
2023/10/22 15:27:01;;;;;;;3.90;2.70;;;;;;;11.85;100.00;99566.95;130511;1304;22577;-83
2023/10/22 15:30:01;;;;;;;3.70;3.30;;;;;;;11.85;100.00;99572.77;130548;1297;22739;-84
2023/10/22 15:33:05;;;;;;;4.00;2.90;;;;;;;11.86;100.00;99578.73;130262;1301;22563;-85
2023/10/22 15:36:07;;;;;;;3.70;3.20;;;;;;;11.84;100.00;99583.41;130496;1306;25321;-82
2023/10/22 15:39:08;;;;;;;4.50;3.00;;;;;;;11.80;100.00;99583.83;130465;1297;22745;-83
2023/10/22 15:42:09;;;;;;;6.50;3.00;;;;;;;11.81;100.00;99590.59;130743;1304;23786;-81
2023/10/22 15:45:10;;;;;;;3.80;3.10;;;;;;;11.81;100.00;99598.11;130422;1302;22671;-82
2023/10/22 15:48:11;;;;;;;;;;;;;;;11.77;100.00;99608.98;130447;1306;22533;-84
2023/10/22 15:51:16;;;;;;;3.30;2.70;;;;;;;11.77;100.00;99609.61;130444;1301;22869;-87
2023/10/22 15:54:19;;;;;;;4.00;2.80;;;;;;;11.74;100.00;99612.45;130336;1301;22610;-86
2023/10/22 15:57:20;;;;;;;5.10;3.50;;;;;;;11.69;100.00;99618.83;130133;1306;23906;-84
2023/10/22 16:00:24;;;;;;;5.70;3.30;;;;;;;11.66;100.00;99625.20;130355;1295;25922;-86